Maple Grove Park, Pennsylvania
Current Conditions -  °F | °C
As of 12:54 AM on Friday 19 Dec 2014 (Local Time) from KRDG Reporting Station
Overcast Overcast  
Wind Chill: 27°   Ceiling: 3500
Heat Index: 35°   Visibility: 10mi
Dew Point: 24°   Wind: 10mph
Humidity: 64%   Direction: 280°W
Pressure: 30.02"   Gusts: NA
Location:  40.2411°N, 75.9752°W
Report Text: KRDG 190554Z AUTO 28009KT 10SM OVC035 02/M04 A3002 RMK AO2 SLP174 T00171044 10022 20017 58003
Loading
Personal Weather Stations






























Interactive Weather Map New forecast layout! Learn more

10-Day Weather Forecast

Advertisements
Track Severe Weather on mobile